Aviation Digital Data Service (ADDS)

Output produced by METARs form (2053 UTC 23 January 2019)
found at http://www.aviationweather.gov/metar/data/
 
Forecast for: UBBG (GYANDZHA , AZ)
Text: TAF UBBG 231700Z 2318/2418 VRB02KT 4000 BR SCT030 BKN080 TX08/2412Z TNM01/2403Z
Forecast period: 1800 UTC 23 January 2019 to 0500 UTC 24 January 2019
Forecast type: FROM: standard forecast or significant change
Winds: variable direction winds at 2 MPH (2 knots; 1.0 m/s)
Visibility: 2.49 miles (4.01 km)
Ceiling: 8000 feet AGL
Clouds: scattered clouds at 3000 feet AGL
broken clouds at 8000 feet AGL
Weather: BR  (mist)
Text: TEMPO 2320/2404 10008KT 0800 FG VV002
Forecast period: 2000 UTC 23 January 2019 to 0400 UTC 24 January 2019
Forecast type: TEMPORARY: The following changes expected for less than half the time period
Winds: from the E (100 degrees) at 9 MPH (8 knots; 4.1 m/s)
Visibility: 0.50 miles (0.80 km)
Ceiling: indefinite ceiling with vertical visibility of 200 feet AGL
Clouds: obscured sky
Weather: FG  (fog)
Text: BECMG 2405/2407 30010KT 9999 NSW
Forecast period: 0500 to 1800 UTC 24 January 2019
Forecast type: BECOMING: Conditions expected to become as follows by 0700 UTC 24 January 2019
Winds: from the WNW (300 degrees) at 12 MPH (10 knots; 5.1 m/s)
Visibility: 6 or more miles 10+ km)
Ceiling: 8000 feet AGL
Clouds: scattered clouds at 3000 feet AGL
broken clouds at 8000 feet AGL
Weather: NSW  (no significant weather)